createdAt,value
2023-04-18T00:01:29.019Z,94211.19
2023-04-18T00:03:56.134Z,94208.59
2023-04-18T00:06:23.386Z,94207.44
2023-04-18T00:08:50.089Z,94209.63
2023-04-18T00:11:16.900Z,94202.84
2023-04-18T00:13:44.476Z,94203.88
2023-04-18T00:16:13.370Z,94208.59
2023-04-18T00:18:40.744Z,94200.25
2023-04-18T00:21:08.829Z,94207.38
2023-04-18T00:23:36.071Z,94193.66
2023-04-18T00:26:03.930Z,94193.28
2023-04-18T00:28:30.800Z,94197.63
2023-04-18T00:30:57.514Z,94199.41
2023-04-18T00:33:24.381Z,94189.69
2023-04-18T00:35:51.101Z,94189.28
2023-04-18T00:38:17.884Z,94185.16
2023-04-18T00:40:44.643Z,94184.97
2023-04-18T00:43:14.169Z,94191.84
2023-04-18T00:45:41.190Z,94198.81
2023-04-18T00:48:08.151Z,94187.91
2023-04-18T00:50:36.830Z,94189.28
2023-04-18T00:53:04.038Z,94191.22
2023-04-18T00:55:30.885Z,94188.22
2023-04-18T00:57:57.674Z,94181.19
2023-04-18T01:00:24.469Z,94189.63
2023-04-18T01:02:53.463Z,94180.28
2023-04-18T01:05:21.508Z,94188.44
2023-04-18T01:07:48.280Z,94188.44
2023-04-18T01:10:15.283Z,94190.06
2023-04-18T01:12:42.089Z,94189.63
2023-04-18T01:15:09.122Z,94184.13
2023-04-18T01:17:35.856Z,94187.69
2023-04-18T01:20:05.658Z,94185.34
2023-04-18T01:22:33.182Z,94180.38
2023-04-18T01:25:00.001Z,94179.78
2023-04-18T01:27:26.701Z,94172.66
2023-04-18T01:29:53.494Z,94178.84
2023-04-18T01:32:20.809Z,94175.47
2023-04-18T01:34:47.720Z,94174.25
2023-04-18T01:37:14.615Z,94175.81
2023-04-18T01:39:41.383Z,94166.88
2023-04-18T01:42:08.189Z,94163.91
2023-04-18T01:44:34.963Z,94163.91
2023-04-18T01:47:01.748Z,94171.47
2023-04-18T01:49:28.593Z,94169.88
2023-04-18T01:51:55.550Z,94166.72
2023-04-18T01:54:22.301Z,94162.78
2023-04-18T01:56:49.158Z,94168.75
2023-04-18T01:59:16.046Z,94168.69
2023-04-18T02:01:42.917Z,94164.28
2023-04-18T02:04:09.716Z,94182.78
2023-04-18T02:06:36.484Z,94181.56
2023-04-18T02:09:03.197Z,94172.66
2023-04-18T02:11:30.399Z,94182.97
2023-04-18T02:13:57.563Z,94177.44
2023-04-18T02:16:24.390Z,94183.63
2023-04-18T02:18:52.486Z,94180.25
2023-04-18T02:21:19.410Z,94186.16
2023-04-18T02:23:46.225Z,94193.69
2023-04-18T02:26:13.120Z,94186.94
2023-04-18T02:28:40.061Z,94183.81
2023-04-18T02:31:07.454Z,94185.03
2023-04-18T02:33:34.180Z,94171.50
2023-04-18T02:36:01.935Z,94176.28
2023-04-18T02:38:28.726Z,94175.88
2023-04-18T02:40:56.174Z,94162.41
2023-04-18T02:43:22.903Z,94178.88
2023-04-18T02:45:49.659Z,94178.22
2023-04-18T02:48:16.567Z,94173.25
2023-04-18T02:50:43.293Z,94176.22
2023-04-18T02:53:10.079Z,94175.66
2023-04-18T02:55:37.395Z,94172.47
2023-04-18T02:58:04.114Z,94169.91
2023-04-18T03:00:30.955Z,94171.31
2023-04-18T03:02:57.969Z,94164.72
2023-04-18T03:05:24.954Z,94174.06
2023-04-18T03:07:51.920Z,94163.13
2023-04-18T03:10:18.719Z,94174.44
2023-04-18T03:12:45.500Z,94173.81
2023-04-18T03:15:12.201Z,94170.44
2023-04-18T03:17:39.564Z,94170.06
2023-04-18T03:20:06.925Z,94175.03
2023-04-18T03:22:33.682Z,94171.66
2023-04-18T03:25:00.827Z,94171.22
2023-04-18T03:27:27.664Z,94170.72
2023-04-18T03:29:54.369Z,94172.31
2023-04-18T03:32:21.088Z,94169.75
2023-04-18T03:34:48.760Z,94170.97
2023-04-18T03:37:15.451Z,94172.03
2023-04-18T03:39:42.183Z,94171.56
2023-04-18T03:42:08.870Z,94163.84
2023-04-18T03:44:35.697Z,94161.88
2023-04-18T03:47:02.425Z,94159.91
2023-04-18T03:49:29.118Z,94168.47
2023-04-18T03:51:55.789Z,94165.69
2023-04-18T03:54:22.525Z,94164.75
2023-04-18T03:56:49.200Z,94179.91
2023-04-18T03:59:16.089Z,94174.75
2023-04-18T04:01:43.002Z,94177.00
2023-04-18T04:04:12.131Z,94169.19
2023-04-18T04:06:39.243Z,94175.41
2023-04-18T04:09:06.574Z,94175.69
2023-04-18T04:11:33.404Z,94175.50
2023-04-18T04:14:01.013Z,94175.69
2023-04-18T04:16:28.061Z,94187.75
2023-04-18T04:18:54.786Z,94182.22
2023-04-18T04:21:21.561Z,94180.66
2023-04-18T04:23:48.302Z,94193.53
2023-04-18T04:26:15.848Z,94188.03
2023-04-18T04:28:43.400Z,94202.69
2023-04-18T04:31:11.528Z,94203.06
2023-04-18T04:33:39.125Z,94200.69
2023-04-18T04:36:07.633Z,94195.16
2023-04-18T04:38:34.716Z,94208.28
2023-04-18T04:41:01.659Z,94196.56
2023-04-18T04:43:28.858Z,94210.50
2023-04-18T04:45:55.954Z,94216.66
2023-04-18T04:48:24.555Z,94212.91
2023-04-18T04:50:57.090Z,94201.38
2023-04-18T04:53:25.088Z,94203.16
2023-04-18T04:55:52.143Z,94208.53
2023-04-18T04:58:19.123Z,94206.16
2023-04-18T05:00:46.316Z,94205.53
2023-04-18T05:03:13.123Z,94211.31
2023-04-18T05:05:40.058Z,94205.34
2023-04-18T05:08:06.985Z,94203.38
2023-04-18T05:10:37.026Z,94202.41
2023-04-18T05:13:04.377Z,94205.28
2023-04-18T05:15:31.617Z,94204.66
2023-04-18T05:17:58.894Z,94192.16
2023-04-18T05:20:25.823Z,94206.25
2023-04-18T05:22:52.503Z,94204.84
2023-04-18T05:25:19.407Z,94201.47
2023-04-18T05:27:47.066Z,94214.00
2023-04-18T05:30:14.044Z,94213.22
2023-04-18T05:32:40.903Z,94211.63
2023-04-18T05:35:08.520Z,94216.03
2023-04-18T05:37:35.286Z,94219.59
2023-04-18T05:40:02.145Z,94220.63
2023-04-18T05:42:28.893Z,94215.09
2023-04-18T05:44:55.841Z,94215.28
2023-04-18T05:47:24.251Z,94224.44
2023-04-18T05:49:51.125Z,94219.03
2023-04-18T05:52:17.949Z,94213.69
2023-04-18T05:54:44.672Z,94219.09
2023-04-18T05:57:11.314Z,94215.94
2023-04-18T05:59:38.164Z,94210.38
2023-04-18T06:02:04.938Z,94212.78
2023-04-18T06:04:31.819Z,94217.16
2023-04-18T06:06:58.704Z,94224.09
2023-04-18T06:09:25.488Z,94218.94
2023-04-18T06:11:52.178Z,94222.28
2023-04-18T06:14:18.953Z,94224.09
2023-04-18T06:16:46.777Z,94226.53
2023-04-18T06:19:13.481Z,94221.16
2023-04-18T06:21:42.201Z,94235.28
2023-04-18T06:24:09.583Z,94233.31
2023-04-18T06:26:36.567Z,94239.63
2023-04-18T06:29:03.298Z,94234.69
2023-04-18T06:31:30.177Z,94251.41
2023-04-18T06:33:56.872Z,94235.28
2023-04-18T06:36:23.824Z,94242.69
2023-04-18T06:38:50.551Z,94243.06
2023-04-18T06:41:17.332Z,94248.69
2023-04-18T06:43:55.771Z,94239.75
2023-04-18T06:46:28.838Z,94248.31
2023-04-18T06:48:55.516Z,94244.97
2023-04-18T06:51:22.325Z,94244.59
2023-04-18T06:53:52.633Z,94231.88
2023-04-18T06:56:20.686Z,94234.25
2023-04-18T06:58:47.913Z,94227.09
2023-04-18T07:01:14.757Z,94232.84
2023-04-18T07:03:41.606Z,94234.22
2023-04-18T07:06:10.660Z,94236.44
2023-04-18T07:08:38.000Z,94240.22
2023-04-18T07:11:06.118Z,94226.69
2023-04-18T07:13:32.942Z,94238.63
2023-04-18T07:15:59.762Z,94233.44
2023-04-18T07:18:36.660Z,94234.03
2023-04-18T07:21:07.868Z,94241.56
2023-04-18T07:23:35.234Z,94234.03
2023-04-18T07:26:03.091Z,94244.38
2023-04-18T07:28:31.802Z,94250.53
2023-04-18T07:30:59.448Z,94249.56
2023-04-18T07:33:26.278Z,94245.78
2023-04-18T07:35:53.238Z,94253.94
2023-04-18T07:38:20.062Z,94246.59
2023-04-18T07:40:46.824Z,94245.78
2023-04-18T07:43:13.545Z,94256.91
2023-04-18T07:45:43.358Z,94254.91
2023-04-18T07:48:11.313Z,94254.91
2023-04-18T07:50:38.341Z,94257.09
2023-04-18T07:53:05.075Z,94260.84
2023-04-18T07:55:32.246Z,94264.63
2023-04-18T07:57:58.958Z,94269.22
2023-04-18T08:00:26.428Z,94264.22
2023-04-18T08:02:53.365Z,94274.03
2023-04-18T08:05:20.497Z,94259.47
2023-04-18T08:07:47.241Z,94268.25
2023-04-18T08:10:14.028Z,94269.81
2023-04-18T08:12:41.065Z,94267.00
2023-04-18T08:15:08.665Z,94268.81
2023-04-18T08:17:36.151Z,94268.63
2023-04-18T08:20:07.370Z,94265.63
2023-04-18T08:22:34.180Z,94272.59
2023-04-18T08:25:05.491Z,94272.00
2023-04-18T08:27:32.760Z,94278.19
2023-04-18T08:29:59.701Z,94276.19
2023-04-18T08:32:26.495Z,94280.16
2023-04-18T08:34:53.340Z,94278.56
2023-04-18T08:37:20.104Z,94279.16
2023-04-18T08:39:46.859Z,94284.50
2023-04-18T08:42:16.491Z,94285.88
2023-04-18T08:44:43.422Z,94287.47
2023-04-18T08:47:10.821Z,94288.88
2023-04-18T08:49:38.404Z,94296.84
2023-04-18T08:52:10.469Z,94284.66
2023-04-18T08:54:38.795Z,94282.22
2023-04-18T08:57:16.515Z,94287.28
2023-04-18T08:59:46.792Z,94297.25
2023-04-18T09:02:15.799Z,94296.22
2023-04-18T09:04:49.348Z,94289.66
2023-04-18T09:07:17.225Z,94295.41
2023-04-18T09:09:48.766Z,94280.81
2023-04-18T09:12:19.601Z,94300.84
2023-04-18T09:14:47.239Z,94301.19
2023-04-18T09:17:18.303Z,94308.31
2023-04-18T09:19:46.767Z,94301.78
2023-04-18T09:22:13.578Z,94309.78
2023-04-18T09:24:48.284Z,94312.34
2023-04-18T09:27:15.148Z,94318.72
2023-04-18T09:29:47.274Z,94312.75
2023-04-18T09:32:25.386Z,94306.34
2023-04-18T09:34:54.556Z,94308.78
2023-04-18T09:37:21.795Z,94306.19
2023-04-18T09:39:50.058Z,94306.28
2023-04-18T09:42:17.278Z,94304.97
2023-04-18T09:45:04.463Z,94299.28
2023-04-18T09:47:32.593Z,94300.56
2023-04-18T09:49:59.370Z,94301.28
2023-04-18T09:52:26.303Z,94309.56
2023-04-18T09:54:58.376Z,94306.72
2023-04-18T09:57:28.860Z,94306.97
2023-04-18T10:00:24.270Z,94308.72
2023-04-18T10:03:16.821Z,94304.94
2023-04-18T10:05:43.824Z,94306.88
2023-04-18T10:08:10.827Z,94303.66
2023-04-18T10:10:38.912Z,94311.28
2023-04-18T10:13:06.830Z,94295.63
2023-04-18T10:15:33.717Z,94303.94
2023-04-18T10:18:05.286Z,94303.34
2023-04-18T10:20:35.329Z,94323.06
2023-04-18T10:23:32.172Z,94317.63
2023-04-18T10:25:59.489Z,94311.91
2023-04-18T10:28:27.731Z,94306.22
2023-04-18T10:31:04.977Z,94308.53
2023-04-18T10:33:42.564Z,94308.91
2023-04-18T10:36:09.571Z,94312.13
2023-04-18T10:38:45.288Z,94308.75
2023-04-18T10:41:27.698Z,94310.97
2023-04-18T10:44:08.488Z,94306.78
2023-04-18T10:46:39.773Z,94309.63
2023-04-18T10:49:30.263Z,94304.16
2023-04-18T10:52:00.537Z,94299.88
2023-04-18T10:54:37.696Z,94297.28
2023-04-18T10:57:05.785Z,94304.00
2023-04-18T10:59:34.364Z,94307.56
2023-04-18T11:02:26.429Z,94296.16
2023-04-18T11:04:55.378Z,94293.22
2023-04-18T11:07:45.002Z,94294.44
2023-04-18T11:10:13.115Z,94292.06
2023-04-18T11:12:41.004Z,94293.38
2023-04-18T11:15:15.270Z,94293.28
2023-04-18T11:17:42.071Z,94294.25
2023-04-18T11:20:12.875Z,94288.53
2023-04-18T11:22:56.428Z,94281.53
2023-04-18T11:25:32.183Z,94286.72
2023-04-18T11:28:00.459Z,94275.03
2023-04-18T11:30:27.724Z,94290.00
2023-04-18T11:32:56.124Z,94286.16
2023-04-18T11:35:22.991Z,94282.06
2023-04-18T11:37:50.411Z,94289.75
2023-04-18T11:40:17.258Z,94284.34
2023-04-18T11:42:44.063Z,94293.44
2023-04-18T11:45:12.044Z,94294.41
2023-04-18T11:47:39.567Z,94292.81
2023-04-18T11:50:08.005Z,94295.69
2023-04-18T11:52:36.108Z,94297.06
2023-04-18T11:55:23.994Z,94301.69
2023-04-18T11:57:54.929Z,94304.88
2023-04-18T12:00:42.194Z,94297.72
2023-04-18T12:03:18.972Z,94299.06
2023-04-18T12:05:46.130Z,94296.06
2023-04-18T12:08:18.280Z,94308.53
2023-04-18T12:10:52.194Z,94296.63
2023-04-18T12:13:20.151Z,94306.59
2023-04-18T12:15:47.248Z,94296.53
2023-04-18T12:18:15.756Z,94302.41
2023-04-18T12:20:50.418Z,94303.69
2023-04-18T12:23:37.266Z,94299.50
2023-04-18T12:26:08.539Z,94300.09
2023-04-18T12:28:35.758Z,94307.28
2023-04-18T12:31:03.135Z,94303.13
2023-04-18T12:33:30.680Z,94306.50
2023-04-18T12:35:57.534Z,94298.00
2023-04-18T12:38:24.487Z,94309.41
2023-04-18T12:40:52.156Z,94306.72
2023-04-18T12:43:19.676Z,94303.13
2023-04-18T12:45:47.042Z,94311.13
2023-04-18T12:48:14.040Z,94298.72
2023-04-18T12:50:40.797Z,94304.44
2023-04-18T12:53:07.607Z,94304.00
2023-04-18T12:55:34.401Z,94299.34
2023-04-18T12:58:01.120Z,94306.72
2023-04-18T13:00:30.596Z,94308.31
2023-04-18T13:02:58.123Z,94309.63
2023-04-18T13:05:28.551Z,94305.56
2023-04-18T13:08:08.714Z,94301.63
2023-04-18T13:10:42.705Z,94308.53
2023-04-18T13:13:09.502Z,94301.31
2023-04-18T13:15:36.425Z,94303.91
2023-04-18T13:18:06.304Z,94302.63
2023-04-18T13:20:33.973Z,94297.50
2023-04-18T13:23:04.136Z,94295.19
2023-04-18T13:25:31.474Z,94300.81
2023-04-18T13:27:58.659Z,94293.72
2023-04-18T13:30:25.791Z,94292.88
2023-04-18T13:32:52.744Z,94298.50
2023-04-18T13:35:19.579Z,94298.22
2023-04-18T13:37:46.413Z,94286.81
2023-04-18T13:40:13.616Z,94292.50
2023-04-18T13:42:40.612Z,94286.44
2023-04-18T13:45:07.836Z,94291.72
2023-04-18T13:47:35.159Z,94285.22
2023-04-18T13:50:01.972Z,94284.72
2023-04-18T13:52:28.868Z,94281.31
2023-04-18T13:54:55.636Z,94292.88
2023-04-18T13:57:23.408Z,94292.50
2023-04-18T13:59:50.248Z,94290.28
2023-04-18T14:02:17.084Z,94288.84
2023-04-18T14:04:44.093Z,94300.94
2023-04-18T14:07:11.001Z,94297.50
2023-04-18T14:09:37.835Z,94298.50
2023-04-18T14:12:05.019Z,94294.03
2023-04-18T14:14:31.785Z,94300.09
2023-04-18T14:16:58.463Z,94297.66
2023-04-18T14:19:25.430Z,94304.44
2023-04-18T14:21:52.378Z,94299.66
2023-04-18T14:24:19.178Z,94300.88
2023-04-18T14:26:46.132Z,94303.00
2023-04-18T14:29:14.305Z,94303.47
2023-04-18T14:31:41.446Z,94298.50
2023-04-18T14:34:09.846Z,94315.25
2023-04-18T14:36:36.771Z,94311.91
2023-04-18T14:39:03.757Z,94303.91
2023-04-18T14:41:30.508Z,94308.94
2023-04-18T14:43:57.193Z,94314.06
2023-04-18T14:46:24.082Z,94308.47
2023-04-18T14:48:51.014Z,94313.13
2023-04-18T14:51:17.755Z,94306.09
2023-04-18T14:53:44.799Z,94313.19
2023-04-18T14:56:11.666Z,94317.69
2023-04-18T14:58:38.511Z,94309.41
2023-04-18T15:01:05.659Z,94315.41
2023-04-18T15:03:32.643Z,94311.44
2023-04-18T15:05:59.653Z,94319.00
2023-04-18T15:08:26.475Z,94320.72
2023-04-18T15:10:53.230Z,94320.59
2023-04-18T15:13:20.509Z,94316.25
2023-04-18T15:15:53.951Z,94312.06
2023-04-18T15:18:21.301Z,94315.47
2023-04-18T15:20:48.046Z,94320.22
2023-04-18T15:23:15.229Z,94322.72
2023-04-18T15:25:43.910Z,94321.22
2023-04-18T15:28:10.772Z,94325.88
2023-04-18T15:30:38.890Z,94324.75
2023-04-18T15:33:05.868Z,94324.28
2023-04-18T15:35:32.722Z,94331.72
2023-04-18T15:37:59.755Z,94329.34
2023-04-18T15:40:26.612Z,94332.16
2023-04-18T15:42:54.423Z,94327.16
2023-04-18T15:45:21.451Z,94331.56
2023-04-18T15:47:48.483Z,94340.56
2023-04-18T15:50:16.521Z,94336.59
2023-04-18T15:52:44.086Z,94326.66
2023-04-18T15:55:12.370Z,94342.16
2023-04-18T15:57:40.055Z,94343.81
2023-04-18T16:00:12.129Z,94342.81
2023-04-18T16:02:38.948Z,94340.22
2023-04-18T16:05:06.195Z,94330.25
2023-04-18T16:07:32.973Z,94341.78
2023-04-18T16:10:02.737Z,94341.31
2023-04-18T16:12:29.710Z,94340.78
2023-04-18T16:14:56.440Z,94337.09
2023-04-18T16:17:23.106Z,94334.69
2023-04-18T16:19:49.789Z,94344.84
2023-04-18T16:22:16.384Z,94340.72
2023-04-18T16:24:43.112Z,94341.88
2023-04-18T16:27:09.745Z,94343.06
2023-04-18T16:29:36.363Z,94349.66
2023-04-18T16:32:03.188Z,94343.88
2023-04-18T16:34:29.787Z,94341.94
2023-04-18T16:36:56.528Z,94350.97
2023-04-18T16:39:23.286Z,94353.56
2023-04-18T16:41:50.286Z,94352.19
2023-04-18T16:44:17.027Z,94346.25
2023-04-18T16:46:43.870Z,94354.03
2023-04-18T16:49:10.724Z,94349.69
2023-04-18T16:51:38.598Z,94351.84
2023-04-18T16:54:06.135Z,94348.31
2023-04-18T16:56:32.875Z,94358.06
2023-04-18T16:58:59.652Z,94362.84
2023-04-18T17:01:26.375Z,94356.88
2023-04-18T17:03:53.094Z,94352.28
2023-04-18T17:06:19.754Z,94353.72
2023-04-18T17:08:46.520Z,94359.69
2023-04-18T17:11:13.181Z,94355.16
2023-04-18T17:13:39.917Z,94356.56
2023-04-18T17:16:07.312Z,94356.16
2023-04-18T17:18:34.030Z,94362.94
2023-04-18T17:21:00.685Z,94363.94
2023-04-18T17:23:27.464Z,94361.97
2023-04-18T17:25:54.203Z,94367.78
2023-04-18T17:28:22.117Z,94368.00
2023-04-18T17:30:50.173Z,94364.84
2023-04-18T17:33:16.847Z,94370.00
2023-04-18T17:35:43.565Z,94378.19
2023-04-18T17:38:10.896Z,94369.66
2023-04-18T17:40:37.738Z,94371.06
2023-04-18T17:43:04.619Z,94377.03
2023-04-18T17:45:31.348Z,94369.47
2023-04-18T17:47:59.562Z,94375.66
2023-04-18T17:50:26.466Z,94371.66
2023-04-18T17:52:53.355Z,94376.09
2023-04-18T17:55:20.185Z,94375.91
2023-04-18T17:57:46.996Z,94378.28
2023-04-18T18:00:14.570Z,94369.53
2023-04-18T18:02:42.818Z,94391.06
2023-04-18T18:05:13.776Z,94388.09
2023-04-18T18:07:43.251Z,94387.50
2023-04-18T18:10:11.394Z,94384.91
2023-04-18T18:12:38.426Z,94396.66
2023-04-18T18:15:08.201Z,94401.06
2023-04-18T18:17:35.182Z,94404.25
2023-04-18T18:20:02.444Z,94414.59
2023-04-18T18:22:29.278Z,94417.00
2023-04-18T18:24:56.632Z,94419.78
2023-04-18T18:27:23.399Z,94417.81
2023-04-18T18:29:50.594Z,94424.56
2023-04-18T18:32:17.349Z,94417.19
2023-04-18T18:34:44.164Z,94409.81
2023-04-18T18:37:10.932Z,94420.19
2023-04-18T18:39:37.859Z,94420.19
2023-04-18T18:42:04.777Z,94416.41
2023-04-18T18:44:32.291Z,94419.81
2023-04-18T18:46:59.836Z,94422.16
2023-04-18T18:49:26.984Z,94415.78
2023-04-18T18:51:53.737Z,94405.81
2023-04-18T18:54:20.478Z,94412.59
2023-04-18T18:56:47.325Z,94412.59
2023-04-18T18:59:15.839Z,94418.16
2023-04-18T19:01:42.890Z,94409.19
2023-04-18T19:04:10.085Z,94416.53
2023-04-18T19:06:36.952Z,94425.69
2023-04-18T19:09:05.262Z,94417.53
2023-04-18T19:11:32.046Z,94427.50
2023-04-18T19:13:58.934Z,94423.28
2023-04-18T19:16:25.788Z,94420.31
2023-04-18T19:18:52.587Z,94428.44
2023-04-18T19:21:20.317Z,94427.66
2023-04-18T19:23:48.237Z,94429.25
2023-04-18T19:26:15.095Z,94428.88
2023-04-18T19:28:42.098Z,94433.25
2023-04-18T19:31:09.630Z,94428.66
2023-04-18T19:33:38.583Z,94433.25
2023-04-18T19:36:05.692Z,94434.47
2023-04-18T19:38:32.939Z,94423.69
2023-04-18T19:40:59.669Z,94432.06
2023-04-18T19:43:27.110Z,94426.91
2023-04-18T19:45:55.346Z,94427.09
2023-04-18T19:48:22.279Z,94427.50
2023-04-18T19:50:49.989Z,94428.06
2023-04-18T19:53:18.976Z,94426.88
2023-04-18T19:55:45.578Z,94426.88
2023-04-18T19:58:12.570Z,94426.03
2023-04-18T20:00:39.572Z,94429.44
2023-04-18T20:03:06.522Z,94432.22
2023-04-18T20:05:33.304Z,94431.22
2023-04-18T20:08:00.234Z,94424.22
2023-04-18T20:10:26.890Z,94423.03
2023-04-18T20:12:53.508Z,94428.41
2023-04-18T20:15:20.397Z,94421.66
2023-04-18T20:17:46.993Z,94424.66
2023-04-18T20:20:14.007Z,94425.41
2023-04-18T20:22:41.871Z,94433.59
2023-04-18T20:25:09.926Z,94429.59
2023-04-18T20:27:36.543Z,94427.19
2023-04-18T20:30:03.467Z,94428.78
2023-04-18T20:32:30.518Z,94420.25
2023-04-18T20:34:58.665Z,94420.84
2023-04-18T20:37:25.338Z,94423.81
2023-04-18T20:39:52.893Z,94424.34
2023-04-18T20:42:19.960Z,94424.16
2023-04-18T20:44:47.642Z,94430.38
2023-04-18T20:47:15.803Z,94427.78
2023-04-18T20:49:42.623Z,94431.97
2023-04-18T20:52:09.740Z,94429.75
2023-04-18T20:54:36.565Z,94431.56
2023-04-18T20:57:03.236Z,94425.41
2023-04-18T20:59:29.966Z,94421.22
2023-04-18T21:01:56.627Z,94419.63
2023-04-18T21:04:23.758Z,94426.00
2023-04-18T21:06:50.938Z,94422.59
2023-04-18T21:09:17.566Z,94427.56
2023-04-18T21:11:44.247Z,94417.03
2023-04-18T21:14:10.881Z,94421.63
2023-04-18T21:16:39.537Z,94418.63
2023-04-18T21:19:06.914Z,94422.00
2023-04-18T21:21:34.427Z,94414.22
2023-04-18T21:24:01.939Z,94409.25
2023-04-18T21:26:29.046Z,94423.38
2023-04-18T21:28:57.324Z,94414.00
2023-04-18T21:31:25.339Z,94420.59
2023-04-18T21:33:59.068Z,94419.00
2023-04-18T21:36:27.327Z,94411.84
2023-04-18T21:38:55.095Z,94416.41
2023-04-18T21:41:22.380Z,94417.19
2023-04-18T21:43:49.761Z,94403.66
2023-04-18T21:46:16.666Z,94407.84
2023-04-18T21:48:45.598Z,94410.81
2023-04-18T21:51:14.573Z,94417.00
2023-04-18T21:53:41.615Z,94414.19
2023-04-18T21:56:09.042Z,94410.44
2023-04-18T21:58:35.737Z,94412.84
2023-04-18T22:01:02.569Z,94411.00
2023-04-18T22:03:29.431Z,94414.19
2023-04-18T22:05:56.721Z,94402.66
2023-04-18T22:08:25.916Z,94406.03
2023-04-18T22:10:56.497Z,94400.06
2023-04-18T22:13:23.643Z,94406.44
2023-04-18T22:15:51.540Z,94396.69
2023-04-18T22:18:19.125Z,94399.47
2023-04-18T22:20:46.942Z,94404.00
2023-04-18T22:23:13.919Z,94398.03
2023-04-18T22:25:41.010Z,94405.22
2023-04-18T22:28:07.873Z,94403.41
2023-04-18T22:30:34.693Z,94401.84
2023-04-18T22:33:01.377Z,94394.09
2023-04-18T22:35:28.183Z,94401.44
2023-04-18T22:37:55.853Z,94397.06
2023-04-18T22:40:22.594Z,94405.78
2023-04-18T22:42:51.830Z,94409.53
2023-04-18T22:45:19.326Z,94403.16
2023-04-18T22:47:46.823Z,94403.03
2023-04-18T22:50:13.928Z,94401.63
2023-04-18T22:52:41.065Z,94402.00
2023-04-18T22:55:08.347Z,94407.59
2023-04-18T22:57:35.041Z,94400.22
2023-04-18T23:00:01.748Z,94398.25
2023-04-18T23:02:28.628Z,94396.84
2023-04-18T23:04:58.497Z,94399.84
2023-04-18T23:07:25.451Z,94397.63
2023-04-18T23:09:52.177Z,94394.84
2023-04-18T23:12:18.915Z,94387.84
2023-04-18T23:14:45.689Z,94386.88
2023-04-18T23:17:12.421Z,94388.25
2023-04-18T23:19:39.221Z,94386.88
2023-04-18T23:22:06.113Z,94379.06
2023-04-18T23:24:32.824Z,94384.28
2023-04-18T23:26:59.602Z,94378.94
2023-04-18T23:29:26.438Z,94377.53
2023-04-18T23:31:53.265Z,94372.72
2023-04-18T23:34:19.944Z,94377.94
2023-04-18T23:36:46.765Z,94381.94
2023-04-18T23:39:13.529Z,94380.56
2023-04-18T23:41:40.194Z,94368.59
2023-04-18T23:44:07.013Z,94367.03
2023-04-18T23:46:36.241Z,94369.63
2023-04-18T23:49:03.304Z,94346.66
2023-04-18T23:51:30.100Z,94367.19
2023-04-18T23:53:56.791Z,94374.31
2023-04-18T23:56:23.443Z,94361.78
2023-04-18T23:58:50.364Z,94350.66
